createdAt,value
2017-06-23T00:00:22.162Z,22.10
2017-06-23T00:02:55.769Z,22.10
2017-06-23T00:05:29.336Z,22.10
2017-06-23T00:08:02.904Z,22.10
2017-06-23T00:10:36.506Z,22.10
2017-06-23T00:13:10.985Z,22.10
2017-06-23T00:15:44.593Z,22.10
2017-06-23T00:18:18.181Z,22.10
2017-06-23T00:20:51.760Z,22.10
2017-06-23T00:23:25.448Z,22.10
2017-06-23T00:25:59.749Z,22.10
2017-06-23T00:28:33.228Z,22.00
2017-06-23T00:31:06.709Z,22.00
2017-06-23T00:33:40.240Z,22.00
2017-06-23T00:36:13.964Z,22.00
2017-06-23T00:38:47.664Z,22.00
2017-06-23T00:41:21.224Z,22.00
2017-06-23T00:43:55.524Z,22.00
2017-06-23T00:46:29.196Z,22.00
2017-06-23T00:49:02.921Z,22.00
2017-06-23T00:51:36.716Z,21.90
2017-06-23T00:54:11.116Z,21.90
2017-06-23T00:56:44.596Z,21.90
2017-06-23T00:59:18.153Z,21.90
2017-06-23T01:01:51.765Z,21.90
2017-06-23T01:04:25.448Z,21.90
2017-06-23T01:06:59.961Z,21.90
2017-06-23T01:09:33.640Z,21.90
2017-06-23T01:12:07.229Z,21.90
2017-06-23T01:14:40.817Z,21.90
2017-06-23T01:17:15.209Z,21.80
2017-06-23T01:19:49.616Z,21.80
2017-06-23T01:22:23.905Z,21.80
2017-06-23T01:24:57.704Z,21.80
2017-06-23T01:27:31.288Z,21.80
2017-06-23T01:30:04.972Z,21.80
2017-06-23T01:32:38.760Z,21.80
2017-06-23T01:35:12.452Z,21.80
2017-06-23T01:37:46.244Z,21.80
2017-06-23T01:40:20.030Z,21.80
2017-06-23T01:42:53.612Z,21.80
2017-06-23T01:45:27.171Z,21.80
2017-06-23T01:48:00.908Z,21.80
2017-06-23T01:50:34.444Z,21.70
2017-06-23T01:53:08.148Z,21.70
2017-06-23T01:55:41.736Z,21.70
2017-06-23T01:58:15.428Z,21.70
2017-06-23T02:00:49.008Z,21.70
2017-06-23T02:03:22.592Z,21.70
2017-06-23T02:05:56.149Z,21.70
2017-06-23T02:08:30.576Z,21.70
2017-06-23T02:11:04.157Z,21.70
2017-06-23T02:13:37.724Z,21.60
2017-06-23T02:16:11.332Z,21.60
2017-06-23T02:18:44.890Z,21.60
2017-06-23T02:21:18.489Z,21.60
2017-06-23T02:23:52.176Z,21.60
2017-06-23T02:26:25.972Z,21.60
2017-06-23T02:28:59.660Z,21.60
2017-06-23T02:31:33.926Z,21.60
2017-06-23T02:34:07.536Z,21.60
2017-06-23T02:36:40.984Z,21.60
2017-06-23T02:39:14.700Z,21.50
2017-06-23T02:41:48.292Z,21.60
2017-06-23T02:44:21.968Z,21.60
2017-06-23T02:46:55.551Z,21.50
2017-06-23T02:49:30.052Z,21.50
2017-06-23T02:52:03.631Z,21.50
2017-06-23T02:54:38.040Z,21.50
2017-06-23T02:57:11.584Z,21.50
2017-06-23T02:59:45.231Z,21.50
2017-06-23T03:02:18.704Z,21.50
2017-06-23T03:04:52.193Z,21.50
2017-06-23T03:07:25.976Z,21.50
2017-06-23T03:09:59.561Z,21.50
2017-06-23T03:12:33.148Z,21.50
2017-06-23T03:15:06.808Z,21.40
2017-06-23T03:17:40.416Z,21.50
2017-06-23T03:20:14.104Z,21.40
2017-06-23T03:22:47.681Z,21.50
2017-06-23T03:25:21.268Z,21.40
2017-06-23T03:27:54.752Z,21.40
2017-06-23T03:30:29.120Z,21.50
2017-06-23T03:33:02.713Z,21.40
2017-06-23T03:35:36.317Z,21.40
2017-06-23T03:38:09.800Z,21.40
2017-06-23T03:40:43.385Z,21.40
2017-06-23T03:43:16.988Z,21.40
2017-06-23T03:45:50.550Z,21.40
2017-06-23T03:48:24.017Z,21.50
2017-06-23T03:50:57.768Z,21.40
2017-06-23T03:53:31.512Z,21.40
2017-06-23T03:56:05.080Z,21.40
2017-06-23T03:58:38.648Z,21.40
2017-06-23T04:01:12.254Z,21.40
2017-06-23T04:03:45.933Z,21.50
2017-06-23T04:06:19.541Z,21.40
2017-06-23T04:08:53.220Z,21.40
2017-06-23T04:11:26.805Z,21.40
2017-06-23T04:14:00.389Z,21.40
2017-06-23T04:16:34.681Z,21.50
2017-06-23T04:19:08.481Z,21.50
2017-06-23T04:21:42.060Z,21.50
2017-06-23T04:24:15.637Z,21.50
2017-06-23T04:26:49.944Z,21.50
2017-06-23T04:29:23.559Z,21.40
2017-06-23T04:31:57.068Z,21.50
2017-06-23T04:34:31.516Z,21.50
2017-06-23T04:37:06.024Z,21.40
2017-06-23T04:39:39.580Z,21.40
2017-06-23T04:42:13.158Z,21.40
2017-06-23T04:44:46.777Z,21.40
2017-06-23T04:47:21.057Z,21.40
2017-06-23T04:49:54.659Z,21.40
2017-06-23T04:52:28.267Z,21.40
2017-06-23T04:55:01.804Z,21.40
2017-06-23T04:57:35.428Z,21.40
2017-06-23T05:00:08.984Z,21.40
2017-06-23T05:02:42.684Z,21.40
2017-06-23T05:05:16.336Z,21.40
2017-06-23T05:07:50.053Z,21.40
2017-06-23T05:10:23.536Z,21.40
2017-06-23T05:12:57.220Z,21.40
2017-06-23T05:15:30.808Z,21.40
2017-06-23T05:18:04.400Z,21.40
2017-06-23T05:20:38.855Z,21.40
2017-06-23T05:23:12.441Z,21.40
2017-06-23T05:25:46.024Z,21.40
2017-06-23T05:28:19.748Z,21.40
2017-06-23T05:30:53.432Z,21.40
2017-06-23T05:33:26.924Z,21.40
2017-06-23T05:36:00.485Z,21.40
2017-06-23T05:38:34.188Z,21.40
2017-06-23T05:41:07.745Z,21.40
2017-06-23T05:43:41.439Z,21.40
2017-06-23T05:46:15.045Z,21.40
2017-06-23T05:48:48.625Z,21.40
2017-06-23T05:51:22.283Z,21.40
2017-06-23T05:53:56.792Z,21.40
2017-06-23T05:56:30.464Z,21.40
2017-06-23T05:59:04.084Z,21.40
2017-06-23T06:01:38.365Z,21.40
2017-06-23T06:04:11.964Z,21.40
2017-06-23T06:06:46.481Z,21.40
2017-06-23T06:09:20.060Z,21.40
2017-06-23T06:11:53.588Z,21.40
2017-06-23T06:14:27.437Z,21.40
2017-06-23T06:17:00.996Z,21.50
2017-06-23T06:19:34.601Z,21.50
2017-06-23T06:22:08.072Z,21.50
2017-06-23T06:24:41.824Z,21.50
2017-06-23T06:27:15.352Z,21.50
2017-06-23T06:29:48.885Z,21.50
2017-06-23T06:32:22.421Z,21.50
2017-06-23T06:34:57.023Z,21.50
2017-06-23T06:37:30.594Z,21.60
2017-06-23T06:40:04.300Z,21.60
2017-06-23T06:42:37.884Z,21.60
2017-06-23T06:45:11.488Z,21.60
2017-06-23T06:47:45.871Z,21.60
2017-06-23T06:50:19.529Z,21.60
2017-06-23T06:52:53.136Z,21.60
2017-06-23T06:55:26.848Z,21.60
2017-06-23T06:58:00.405Z,21.60
2017-06-23T07:00:34.692Z,21.60
2017-06-23T07:03:08.253Z,21.50
2017-06-23T07:05:41.856Z,21.60
2017-06-23T07:08:16.152Z,21.60
2017-06-23T07:10:50.680Z,21.60
2017-06-23T07:13:24.140Z,21.60
2017-06-23T07:15:57.737Z,21.60
2017-06-23T07:18:31.272Z,21.60
2017-06-23T07:21:04.916Z,21.60
2017-06-23T07:23:38.456Z,21.60
2017-06-23T07:26:12.077Z,21.60
2017-06-23T07:28:45.868Z,21.60
2017-06-23T07:31:19.444Z,21.70
2017-06-23T07:33:53.002Z,21.70
2017-06-23T07:36:26.720Z,21.70
2017-06-23T07:39:00.405Z,21.80
2017-06-23T07:41:34.901Z,21.80
2017-06-23T07:44:08.501Z,21.80
2017-06-23T07:46:42.088Z,21.80
2017-06-23T07:49:15.616Z,21.80
2017-06-23T07:51:49.356Z,21.80
2017-06-23T07:54:23.760Z,21.80
2017-06-23T07:56:58.252Z,21.80
2017-06-23T07:59:31.960Z,21.80
2017-06-23T08:02:05.533Z,21.80
2017-06-23T08:04:39.900Z,21.90
2017-06-23T08:07:13.520Z,21.90
2017-06-23T08:09:47.240Z,21.90
2017-06-23T08:12:21.100Z,21.90
2017-06-23T08:14:54.693Z,21.90
2017-06-23T08:17:28.366Z,21.90
2017-06-23T08:20:01.949Z,21.90
2017-06-23T08:22:36.457Z,21.90
2017-06-23T08:25:10.045Z,21.90
2017-06-23T08:27:44.536Z,21.90
2017-06-23T08:30:18.229Z,21.90
2017-06-23T08:32:51.880Z,21.90
2017-06-23T08:35:25.608Z,21.90
2017-06-23T08:37:59.256Z,21.90
2017-06-23T08:40:33.648Z,22.00
2017-06-23T08:43:07.877Z,22.00
2017-06-23T08:45:41.482Z,22.00
2017-06-23T08:48:16.484Z,22.00
2017-06-23T08:50:50.176Z,22.00
2017-06-23T08:53:23.857Z,22.00
2017-06-23T08:55:57.660Z,22.00
2017-06-23T08:58:31.447Z,22.00
2017-06-23T09:01:04.929Z,22.00
2017-06-23T09:03:38.483Z,22.00
2017-06-23T09:06:12.082Z,22.00
2017-06-23T09:08:45.676Z,22.00
2017-06-23T09:11:19.356Z,22.00
2017-06-23T09:13:53.108Z,22.00
2017-06-23T09:16:26.660Z,22.00
2017-06-23T09:19:00.169Z,22.00
2017-06-23T09:21:33.797Z,22.00
2017-06-23T09:24:07.388Z,22.00
2017-06-23T09:26:40.976Z,22.10
2017-06-23T09:29:15.371Z,22.10
2017-06-23T09:31:49.009Z,22.10
2017-06-23T09:34:22.852Z,22.10
2017-06-23T09:36:56.408Z,22.10
2017-06-23T09:39:30.821Z,22.10
2017-06-23T09:42:04.296Z,22.10
2017-06-23T09:44:38.089Z,22.10
2017-06-23T09:47:12.474Z,22.10
2017-06-23T09:49:46.177Z,22.10
2017-06-23T09:52:19.884Z,22.10
2017-06-23T09:54:54.292Z,22.10
2017-06-23T09:57:27.840Z,22.10
2017-06-23T10:00:01.560Z,22.10
2017-06-23T10:02:35.957Z,22.20
2017-06-23T10:05:09.541Z,22.10
2017-06-23T10:07:43.229Z,22.10
2017-06-23T10:10:16.912Z,22.20
2017-06-23T10:12:50.501Z,22.20
2017-06-23T10:15:24.085Z,22.20
2017-06-23T10:17:57.768Z,22.20
2017-06-23T10:20:31.541Z,22.20
2017-06-23T10:23:05.145Z,22.20
2017-06-23T10:25:38.827Z,22.20
2017-06-23T10:28:12.316Z,22.20
2017-06-23T10:30:46.718Z,22.30
2017-06-23T10:33:20.273Z,22.30
2017-06-23T10:35:53.878Z,22.30
2017-06-23T10:38:27.364Z,22.30
2017-06-23T10:41:01.125Z,22.30
2017-06-23T10:43:34.944Z,22.30
2017-06-23T10:46:08.622Z,22.40
2017-06-23T10:48:42.185Z,22.40
2017-06-23T10:51:15.956Z,22.40
2017-06-23T10:53:50.465Z,22.40
2017-06-23T10:56:24.052Z,22.40
2017-06-23T10:58:57.668Z,22.40
2017-06-23T11:01:31.261Z,22.40
2017-06-23T11:04:05.605Z,22.40
2017-06-23T11:06:39.181Z,22.50
2017-06-23T11:09:12.812Z,22.50
2017-06-23T11:11:46.312Z,22.50
2017-06-23T11:14:19.977Z,22.50
2017-06-23T11:16:53.580Z,22.50
2017-06-23T11:19:28.081Z,22.60
2017-06-23T11:22:01.665Z,22.60
2017-06-23T11:24:35.240Z,22.60
2017-06-23T11:27:08.940Z,22.60
2017-06-23T11:29:42.528Z,22.60
2017-06-23T11:32:17.129Z,22.60
2017-06-23T11:34:50.683Z,22.60
2017-06-23T11:37:24.292Z,22.60
2017-06-23T11:39:57.880Z,22.60
2017-06-23T11:42:31.361Z,22.60
2017-06-23T11:45:05.828Z,22.70
2017-06-23T11:47:39.560Z,22.70
2017-06-23T11:50:13.077Z,22.70
2017-06-23T11:52:47.540Z,22.70
2017-06-23T11:55:21.124Z,22.70
2017-06-23T11:57:55.504Z,22.80
2017-06-23T12:00:28.969Z,22.70
2017-06-23T12:03:02.681Z,22.80
2017-06-23T12:05:36.381Z,22.80
2017-06-23T12:08:09.974Z,22.80
2017-06-23T12:10:43.552Z,22.80
2017-06-23T12:13:17.340Z,22.90
2017-06-23T12:15:50.905Z,22.90
2017-06-23T12:18:24.484Z,22.80
2017-06-23T12:20:58.168Z,22.80
2017-06-23T12:23:32.501Z,22.90
2017-06-23T12:26:05.972Z,22.80
2017-06-23T12:28:39.764Z,22.90
2017-06-23T12:31:13.348Z,22.90
2017-06-23T12:33:46.929Z,23.00
2017-06-23T12:36:20.464Z,23.00
2017-06-23T12:38:54.164Z,22.90
2017-06-23T12:41:27.779Z,23.00
2017-06-23T12:44:01.343Z,23.00
2017-06-23T12:46:34.828Z,22.90
2017-06-23T12:49:08.433Z,22.90
2017-06-23T12:51:42.021Z,23.00
2017-06-23T12:54:15.712Z,23.00
2017-06-23T12:56:49.389Z,23.10
2017-06-23T12:59:23.213Z,23.20
2017-06-23T13:01:57.645Z,23.20
2017-06-23T13:04:31.384Z,23.10
2017-06-23T13:07:04.927Z,23.00
2017-06-23T13:09:38.541Z,23.10
2017-06-23T13:12:12.028Z,23.10
2017-06-23T13:14:46.428Z,23.20
2017-06-23T13:17:20.013Z,23.20
2017-06-23T13:19:54.484Z,23.20
2017-06-23T13:22:28.076Z,23.20
2017-06-23T13:25:01.792Z,23.20
2017-06-23T13:27:36.292Z,23.20
2017-06-23T13:30:09.877Z,23.20
2017-06-23T13:32:43.392Z,23.20
2017-06-23T13:35:17.244Z,23.20
2017-06-23T13:37:50.825Z,23.20
2017-06-23T13:40:24.421Z,23.30
2017-06-23T13:42:58.003Z,23.30
2017-06-23T13:45:31.688Z,23.30
2017-06-23T13:48:05.136Z,23.30
2017-06-23T13:50:38.853Z,23.30
2017-06-23T13:53:12.416Z,23.20
2017-06-23T13:55:46.020Z,23.20
2017-06-23T13:58:20.392Z,23.30
2017-06-23T14:00:53.901Z,23.30
2017-06-23T14:03:27.556Z,23.40
2017-06-23T14:06:01.160Z,23.30
2017-06-23T14:08:34.916Z,23.30
2017-06-23T14:11:08.554Z,23.30
2017-06-23T14:13:42.177Z,23.30
2017-06-23T14:16:17.129Z,23.20
2017-06-23T14:18:51.424Z,23.20
2017-06-23T14:21:25.852Z,23.20
2017-06-23T14:23:59.334Z,23.20
2017-06-23T14:26:33.821Z,23.20
2017-06-23T14:29:08.312Z,23.20
2017-06-23T14:31:42.034Z,23.20
2017-06-23T14:34:15.733Z,23.20
2017-06-23T14:36:49.392Z,23.20
2017-06-23T14:39:22.937Z,23.20
2017-06-23T14:41:56.577Z,23.20
2017-06-23T14:44:30.144Z,23.20
2017-06-23T14:47:04.428Z,23.20
2017-06-23T14:49:38.075Z,23.20
2017-06-23T14:52:11.768Z,23.20
2017-06-23T14:54:45.384Z,23.20
2017-06-23T14:57:19.105Z,23.20
2017-06-23T14:59:52.712Z,23.20
2017-06-23T15:02:26.348Z,23.20
2017-06-23T15:04:59.952Z,23.20
2017-06-23T15:07:34.356Z,23.20
2017-06-23T15:10:08.000Z,23.20
2017-06-23T15:12:41.584Z,23.20
2017-06-23T15:15:16.104Z,23.10
2017-06-23T15:17:49.848Z,23.10
2017-06-23T15:20:23.392Z,23.20
2017-06-23T15:22:57.096Z,23.10
2017-06-23T15:25:30.724Z,23.10
2017-06-23T15:28:04.280Z,23.10
2017-06-23T15:30:37.944Z,23.20
2017-06-23T15:33:11.533Z,23.20
2017-06-23T15:35:45.121Z,23.10
2017-06-23T15:38:18.800Z,23.10
2017-06-23T15:40:52.449Z,23.10
2017-06-23T15:43:26.260Z,23.10
2017-06-23T15:45:59.853Z,23.10
2017-06-23T15:48:33.452Z,23.10
2017-06-23T15:51:07.026Z,23.10
2017-06-23T15:53:40.596Z,23.10
2017-06-23T15:56:14.925Z,23.10
2017-06-23T15:58:49.316Z,23.10
2017-06-23T16:01:23.100Z,23.10
2017-06-23T16:03:56.796Z,23.10
2017-06-23T16:06:30.377Z,23.10
2017-06-23T16:09:03.961Z,23.00
2017-06-23T16:11:37.520Z,23.00
2017-06-23T16:14:11.108Z,23.00
2017-06-23T16:16:44.669Z,23.00
2017-06-23T16:19:18.496Z,23.00
2017-06-23T16:21:52.080Z,23.00
2017-06-23T16:24:25.647Z,23.00
2017-06-23T16:26:59.248Z,23.00
2017-06-23T16:29:33.752Z,23.00
2017-06-23T16:32:07.420Z,23.00
2017-06-23T16:34:41.257Z,23.00
2017-06-23T16:37:14.896Z,23.00
2017-06-23T16:39:48.420Z,23.00
2017-06-23T16:42:22.089Z,23.00
2017-06-23T16:44:55.680Z,23.00
2017-06-23T16:47:30.132Z,23.00
2017-06-23T16:50:04.448Z,23.00
2017-06-23T16:52:38.000Z,23.00
2017-06-23T16:55:11.848Z,23.00
2017-06-23T16:57:45.425Z,23.00
2017-06-23T17:00:19.114Z,23.00
2017-06-23T17:02:52.680Z,23.00
2017-06-23T17:05:26.288Z,23.00
2017-06-23T17:07:59.763Z,23.00
2017-06-23T17:10:33.441Z,23.00
2017-06-23T17:13:07.656Z,23.00
2017-06-23T17:15:41.172Z,22.90
2017-06-23T17:18:14.752Z,22.90
2017-06-23T17:20:48.228Z,22.90
2017-06-23T17:23:21.833Z,22.90
2017-06-23T17:25:55.343Z,22.90
2017-06-23T17:28:28.787Z,22.90
2017-06-23T17:31:02.289Z,22.90
2017-06-23T17:33:35.753Z,22.90
2017-06-23T17:36:09.276Z,22.90
2017-06-23T17:38:42.776Z,22.90
2017-06-23T17:41:16.469Z,22.90
2017-06-23T17:43:50.072Z,22.90
2017-06-23T17:46:23.546Z,22.90
2017-06-23T17:48:57.125Z,22.90
2017-06-23T17:51:30.793Z,22.90
2017-06-23T17:54:04.304Z,22.90
2017-06-23T17:56:37.776Z,22.90
2017-06-23T17:59:11.412Z,22.90
2017-06-23T18:01:44.983Z,22.90
2017-06-23T18:04:18.568Z,22.90
2017-06-23T18:06:52.247Z,22.90
2017-06-23T18:09:25.720Z,22.90
2017-06-23T18:11:59.224Z,22.90
2017-06-23T18:14:32.809Z,22.90
2017-06-23T18:17:06.304Z,22.90
2017-06-23T18:19:39.817Z,22.90
2017-06-23T18:22:13.337Z,22.90
2017-06-23T18:24:46.848Z,22.80
2017-06-23T18:27:20.384Z,22.80
2017-06-23T18:29:53.900Z,22.80
2017-06-23T18:32:27.593Z,22.80
2017-06-23T18:35:01.213Z,22.80
2017-06-23T18:37:34.905Z,22.80
2017-06-23T18:40:08.495Z,22.80
2017-06-23T18:42:41.980Z,22.80
2017-06-23T18:45:15.572Z,22.80
2017-06-23T18:47:49.148Z,22.80
2017-06-23T18:50:22.660Z,22.80
2017-06-23T18:52:56.199Z,22.80
2017-06-23T18:55:29.708Z,22.80
2017-06-23T18:58:03.221Z,22.80
2017-06-23T19:00:36.725Z,22.80
2017-06-23T19:03:10.249Z,22.80
2017-06-23T19:05:43.756Z,22.80
2017-06-23T19:08:17.248Z,22.80
2017-06-23T19:10:50.756Z,22.80
2017-06-23T19:13:24.439Z,22.80
2017-06-23T19:15:58.041Z,22.80
2017-06-23T19:18:32.301Z,22.80
2017-06-23T19:21:05.900Z,22.80
2017-06-23T19:23:39.512Z,22.80
2017-06-23T19:26:13.108Z,22.80
2017-06-23T19:28:46.736Z,22.80
2017-06-23T19:31:20.192Z,22.80
2017-06-23T19:33:53.788Z,22.70
2017-06-23T19:36:27.273Z,22.70
2017-06-23T19:39:00.748Z,22.70
2017-06-23T19:41:34.289Z,22.70
2017-06-23T19:44:07.804Z,22.70
2017-06-23T19:46:41.312Z,22.70
2017-06-23T19:49:14.980Z,22.70
2017-06-23T19:51:48.500Z,22.70
2017-06-23T19:54:22.020Z,22.70
2017-06-23T19:56:55.477Z,22.70
2017-06-23T19:59:28.956Z,22.70
2017-06-23T20:02:02.581Z,22.60
2017-06-23T20:04:36.108Z,22.60
2017-06-23T20:07:09.613Z,22.60
2017-06-23T20:09:43.217Z,22.60
2017-06-23T20:12:16.716Z,22.60
2017-06-23T20:14:50.204Z,22.60
2017-06-23T20:17:23.676Z,22.60
2017-06-23T20:19:57.372Z,22.60
2017-06-23T20:22:30.960Z,22.60
2017-06-23T20:25:04.647Z,22.60
2017-06-23T20:27:38.245Z,22.60
2017-06-23T20:30:11.744Z,22.60
2017-06-23T20:32:45.276Z,22.60
2017-06-23T20:35:18.912Z,22.60
2017-06-23T20:37:52.503Z,22.50
2017-06-23T20:40:26.220Z,22.50
2017-06-23T20:42:59.696Z,22.50
2017-06-23T20:45:33.293Z,22.50
2017-06-23T20:48:06.748Z,22.50
2017-06-23T20:50:40.264Z,22.50
2017-06-23T20:53:13.853Z,22.50
2017-06-23T20:55:47.536Z,22.40
2017-06-23T20:58:20.992Z,22.40
2017-06-23T21:00:54.533Z,22.40
2017-06-23T21:03:28.019Z,22.40
2017-06-23T21:06:01.557Z,22.40
2017-06-23T21:08:35.396Z,22.40
2017-06-23T21:11:09.025Z,22.40
2017-06-23T21:13:42.556Z,22.30
2017-06-23T21:16:16.048Z,22.40
2017-06-23T21:18:49.559Z,22.30
2017-06-23T21:21:23.277Z,22.30
2017-06-23T21:23:56.740Z,22.30
2017-06-23T21:26:30.444Z,22.30
2017-06-23T21:29:04.124Z,22.30
2017-06-23T21:31:37.820Z,22.30
2017-06-23T21:34:11.279Z,22.20
2017-06-23T21:36:44.768Z,22.20
2017-06-23T21:39:18.245Z,22.20
2017-06-23T21:41:52.784Z,22.20
2017-06-23T21:44:26.399Z,22.20
2017-06-23T21:46:59.872Z,22.20
2017-06-23T21:49:33.385Z,22.20
2017-06-23T21:52:06.888Z,22.10
2017-06-23T21:54:40.336Z,22.10
2017-06-23T21:57:13.808Z,22.10
2017-06-23T21:59:47.315Z,22.10
2017-06-23T22:02:20.877Z,22.10
2017-06-23T22:04:54.352Z,22.10
2017-06-23T22:07:28.042Z,22.00
2017-06-23T22:10:01.657Z,22.00
2017-06-23T22:12:35.148Z,22.00
2017-06-23T22:15:08.745Z,22.00
2017-06-23T22:17:42.376Z,22.00
2017-06-23T22:20:15.944Z,22.00
2017-06-23T22:22:49.625Z,22.00
2017-06-23T22:25:23.228Z,22.00
2017-06-23T22:27:56.920Z,22.00
2017-06-23T22:30:30.384Z,22.00
2017-06-23T22:33:03.889Z,22.00
2017-06-23T22:35:37.397Z,21.90
2017-06-23T22:38:10.868Z,21.90
2017-06-23T22:40:44.523Z,22.00
2017-06-23T22:43:18.029Z,21.90
2017-06-23T22:45:51.540Z,21.90
2017-06-23T22:48:25.007Z,21.90
2017-06-23T22:50:58.545Z,21.90
2017-06-23T22:53:32.012Z,21.90
2017-06-23T22:56:05.672Z,21.80
2017-06-23T22:58:39.353Z,21.80
2017-06-23T23:01:12.952Z,21.80
2017-06-23T23:03:46.435Z,21.80
2017-06-23T23:06:19.909Z,21.80
2017-06-23T23:08:53.634Z,21.80
2017-06-23T23:11:27.117Z,21.80
2017-06-23T23:14:00.616Z,21.80
2017-06-23T23:16:34.276Z,21.80
2017-06-23T23:19:07.768Z,21.80
2017-06-23T23:21:41.437Z,21.80
2017-06-23T23:24:14.928Z,21.80
2017-06-23T23:26:48.369Z,21.80
2017-06-23T23:29:21.856Z,21.80
2017-06-23T23:31:55.450Z,21.80
2017-06-23T23:34:29.108Z,21.80
2017-06-23T23:37:02.580Z,21.80
2017-06-23T23:39:36.265Z,21.80
2017-06-23T23:42:09.708Z,21.80
2017-06-23T23:44:43.319Z,21.80
2017-06-23T23:47:16.919Z,21.80
2017-06-23T23:49:50.605Z,21.80
2017-06-23T23:52:24.083Z,21.80
2017-06-23T23:54:57.557Z,21.80
2017-06-23T23:57:31.008Z,21.80
